Terminal Aerodrome Forecast
Issued by NWS

Home | Current Version | Previous Version | Text Only | Print | Product List | Glossary On
Versions: 1 2 3 4 5 6 7 8 9 10 11 12 13 14 15 16 17 18 19 20 21
000
FTUS46 KPDT 211100
TAFALW
TAF
KALW 211129Z 2112/2212 20010KT P6SM BKN060
     FM211700 23012G22KT P6SM FEW060 SCT140
     FM220200 15006KT P6SM OVC200
     FM220800 15006KT P6SM OVC080=

USA.gov is the U.S. government's official web portal to all federal, state and local government web resources and services.